<?xml version="1.0" encoding="UTF-8" standalone="no" ?>
<gpx xmlns="http://www.topografix.com/GPX/1/1" xmlns:xsi="http://www.w3.org/2001/XMLSchema-instance" xsi:schemaLocation="http://www.topografix.com/GPX/1/1 http://www.topografix.com/GPX/1/1/gpx.xsd" version="1.1" creator="VisuGPX - https://www.visugpx.com">
  <metadata>
    <name>À l'Ouest de la calanque d'Aurelle depuis Le Trayas</name>
  </metadata>
  <wpt lat="43.46431" lon="6.92273">
    <ele>20.9</ele>
    <name><![CDATA[Parking calanque]]></name>
  </wpt>
  <wpt lat="43.46206" lon="6.92156">
    <ele>22.5</ele>
    <name><![CDATA[Calanque d’Aurelle - Tunnel]]></name>
  </wpt>
  <wpt lat="43.46357" lon="6.91081">
    <ele>141.3</ele>
    <name><![CDATA[Croisement sentier-route goudronnée]]></name>
  </wpt>
  <wpt lat="43.46346" lon="6.90982">
    <ele>148.4</ele>
    <name><![CDATA[Intersection route goudronnée-sentier]]></name>
  </wpt>
  <wpt lat="43.46384" lon="6.90919">
    <ele>164.4</ele>
    <name><![CDATA[Carrefour de la boucle]]></name>
  </wpt>
  <wpt lat="43.4644" lon="6.90897">
    <ele>178.1</ele>
    <name><![CDATA[Début du  GR]]></name>
  </wpt>
  <wpt lat="43.4674" lon="6.90561">
    <ele>238.5</ele>
    <name><![CDATA[Intersection sentier route-goudronnée.]]></name>
  </wpt>
  <wpt lat="43.46635" lon="6.90395">
    <ele>241.1</ele>
    <name><![CDATA[Lacet]]></name>
  </wpt>
  <wpt lat="43.46078" lon="6.88958">
    <ele>85.3</ele>
    <name><![CDATA[Intersection sentier-GR - Ravin des Lentisques]]></name>
  </wpt>
  <wpt lat="43.46369" lon="6.90691">
    <ele>158.9</ele>
    <name><![CDATA[Coude de sentier]]></name>
  </wpt>
  <wpt lat="43.46389" lon="6.90912">
    <ele>165.3</ele>
    <name><![CDATA[Carrefour avec panneau de signalisation.]]></name>
  </wpt>
  <wpt lat="43.46431" lon="6.92272">
    <ele>21.1</ele>
    <name><![CDATA[Parking calanque]]></name>
  </wpt>
  <trk>
    <name><![CDATA[À l'Ouest de la calanque d'Aurelle depuis Le Trayas]]></name>
    <extensions>
      <line xmlns="http://www.topografix.com/GPX/gpx_style/0/2">
        <color>0000FF</color>
        <width>4</width>
      </line>
    </extensions>
    <trkseg>
      <trkpt lat="43.46431" lon="6.92273">
        <ele>16</ele>
        <time>2021-04-10T16:13:35+02:00</time>
      </trkpt>
      <trkpt lat="43.46412" lon="6.92285">
        <ele>14</ele>
        <time>2021-04-10T16:13:40+02:00</time>
      </trkpt>
      <trkpt lat="43.46396" lon="6.92278">
        <ele>17</ele>
        <time>2021-04-10T16:13:45+02:00</time>
      </trkpt>
      <trkpt lat="43.46389" lon="6.92279">
        <ele>18</ele>
        <time>2021-04-10T16:13:50+02:00</time>
      </trkpt>
      <trkpt lat="43.46385" lon="6.92309">
        <ele>14</ele>
        <time>2021-04-10T16:13:55+02:00</time>
      </trkpt>
      <trkpt lat="43.46359" lon="6.92349">
        <ele>13</ele>
        <time>2021-04-10T16:14:00+02:00</time>
      </trkpt>
      <trkpt lat="43.46338" lon="6.92374">
        <ele>10</ele>
        <time>2021-04-10T16:14:05+02:00</time>
      </trkpt>
      <trkpt lat="43.46309" lon="6.92332">
        <ele>10</ele>
        <time>2021-04-10T16:14:10+02:00</time>
      </trkpt>
      <trkpt lat="43.46255" lon="6.92277">
        <ele>5</ele>
        <time>2021-04-10T16:14:15+02:00</time>
      </trkpt>
      <trkpt lat="43.46248" lon="6.92274">
        <ele>4</ele>
        <time>2021-04-10T16:14:20+02:00</time>
      </trkpt>
      <trkpt lat="43.4624" lon="6.9219">
        <ele>8</ele>
        <time>2021-04-10T16:14:25+02:00</time>
      </trkpt>
      <trkpt lat="43.46234" lon="6.92162">
        <ele>13</ele>
        <time>2021-04-10T16:14:30+02:00</time>
      </trkpt>
      <trkpt lat="43.46206" lon="6.92156">
        <ele>13</ele>
        <time>2021-04-10T16:14:35+02:00</time>
      </trkpt>
      <trkpt lat="43.46211" lon="6.92071">
        <ele>12</ele>
        <time>2021-04-10T16:14:40+02:00</time>
      </trkpt>
      <trkpt lat="43.46214" lon="6.92043">
        <ele>11</ele>
        <time>2021-04-10T16:14:45+02:00</time>
      </trkpt>
      <trkpt lat="43.4621" lon="6.9202">
        <ele>12</ele>
        <time>2021-04-10T16:14:50+02:00</time>
      </trkpt>
      <trkpt lat="43.46202" lon="6.9198">
        <ele>13</ele>
        <time>2021-04-10T16:14:55+02:00</time>
      </trkpt>
      <trkpt lat="43.46215" lon="6.91948">
        <ele>11</ele>
        <time>2021-04-10T16:15:00+02:00</time>
      </trkpt>
      <trkpt lat="43.46202" lon="6.91896">
        <ele>12</ele>
        <time>2021-04-10T16:15:05+02:00</time>
      </trkpt>
      <trkpt lat="43.46197" lon="6.91831">
        <ele>12</ele>
        <time>2021-04-10T16:15:10+02:00</time>
      </trkpt>
      <trkpt lat="43.46193" lon="6.91813">
        <ele>12</ele>
        <time>2021-04-10T16:15:15+02:00</time>
      </trkpt>
      <trkpt lat="43.46206" lon="6.91788">
        <ele>18</ele>
        <time>2021-04-10T16:15:20+02:00</time>
      </trkpt>
      <trkpt lat="43.46188" lon="6.9175">
        <ele>20</ele>
        <time>2021-04-10T16:15:25+02:00</time>
      </trkpt>
      <trkpt lat="43.46185" lon="6.91711">
        <ele>25</ele>
        <time>2021-04-10T16:15:30+02:00</time>
      </trkpt>
      <trkpt lat="43.46193" lon="6.91661">
        <ele>30</ele>
        <time>2021-04-10T16:15:35+02:00</time>
      </trkpt>
      <trkpt lat="43.46192" lon="6.91541">
        <ele>44</ele>
        <time>2021-04-10T16:15:40+02:00</time>
      </trkpt>
      <trkpt lat="43.46195" lon="6.91488">
        <ele>50</ele>
        <time>2021-04-10T16:15:45+02:00</time>
      </trkpt>
      <trkpt lat="43.46205" lon="6.91418">
        <ele>59</ele>
        <time>2021-04-10T16:15:50+02:00</time>
      </trkpt>
      <trkpt lat="43.46199" lon="6.91388">
        <ele>59</ele>
        <time>2021-04-10T16:15:55+02:00</time>
      </trkpt>
      <trkpt lat="43.46224" lon="6.91314">
        <ele>67</ele>
        <time>2021-04-10T16:16:00+02:00</time>
      </trkpt>
      <trkpt lat="43.46226" lon="6.91294">
        <ele>68</ele>
        <time>2021-04-10T16:16:05+02:00</time>
      </trkpt>
      <trkpt lat="43.46252" lon="6.9129">
        <ele>76</ele>
        <time>2021-04-10T16:16:10+02:00</time>
      </trkpt>
      <trkpt lat="43.46251" lon="6.91277">
        <ele>76</ele>
        <time>2021-04-10T16:16:15+02:00</time>
      </trkpt>
      <trkpt lat="43.46231" lon="6.91264">
        <ele>73</ele>
        <time>2021-04-10T16:16:20+02:00</time>
      </trkpt>
      <trkpt lat="43.46231" lon="6.91245">
        <ele>75</ele>
        <time>2021-04-10T16:16:25+02:00</time>
      </trkpt>
      <trkpt lat="43.46241" lon="6.91231">
        <ele>80</ele>
        <time>2021-04-10T16:16:30+02:00</time>
      </trkpt>
      <trkpt lat="43.46248" lon="6.91165">
        <ele>84</ele>
        <time>2021-04-10T16:16:35+02:00</time>
      </trkpt>
      <trkpt lat="43.46266" lon="6.91129">
        <ele>90</ele>
        <time>2021-04-10T16:16:40+02:00</time>
      </trkpt>
      <trkpt lat="43.46283" lon="6.91088">
        <ele>96</ele>
        <time>2021-04-10T16:16:45+02:00</time>
      </trkpt>
      <trkpt lat="43.46285" lon="6.91079">
        <ele>98</ele>
        <time>2021-04-10T16:16:50+02:00</time>
      </trkpt>
      <trkpt lat="43.46269" lon="6.91069">
        <ele>97</ele>
        <time>2021-04-10T16:16:55+02:00</time>
      </trkpt>
      <trkpt lat="43.46245" lon="6.91054">
        <ele>98</ele>
        <time>2021-04-10T16:17:00+02:00</time>
      </trkpt>
      <trkpt lat="43.46223" lon="6.91003">
        <ele>103</ele>
        <time>2021-04-10T16:17:05+02:00</time>
      </trkpt>
      <trkpt lat="43.4622" lon="6.90973">
        <ele>107</ele>
        <time>2021-04-10T16:17:10+02:00</time>
      </trkpt>
      <trkpt lat="43.46245" lon="6.91006">
        <ele>113</ele>
        <time>2021-04-10T16:17:15+02:00</time>
      </trkpt>
      <trkpt lat="43.46269" lon="6.91019">
        <ele>117</ele>
        <time>2021-04-10T16:17:20+02:00</time>
      </trkpt>
      <trkpt lat="43.46301" lon="6.91019">
        <ele>122</ele>
        <time>2021-04-10T16:17:25+02:00</time>
      </trkpt>
      <trkpt lat="43.46336" lon="6.91012">
        <ele>132</ele>
        <time>2021-04-10T16:17:30+02:00</time>
      </trkpt>
      <trkpt lat="43.46357" lon="6.91081">
        <ele>134</ele>
        <time>2021-04-10T16:17:35+02:00</time>
      </trkpt>
      <trkpt lat="43.46354" lon="6.91042">
        <ele>136</ele>
        <time>2021-04-10T16:17:40+02:00</time>
      </trkpt>
      <trkpt lat="43.46346" lon="6.90982">
        <ele>143</ele>
        <time>2021-04-10T16:17:45+02:00</time>
      </trkpt>
      <trkpt lat="43.46347" lon="6.90962">
        <ele>148</ele>
        <time>2021-04-10T16:17:50+02:00</time>
      </trkpt>
      <trkpt lat="43.46336" lon="6.90952">
        <ele>148</ele>
        <time>2021-04-10T16:17:55+02:00</time>
      </trkpt>
      <trkpt lat="43.46315" lon="6.90944">
        <ele>148</ele>
        <time>2021-04-10T16:18:00+02:00</time>
      </trkpt>
      <trkpt lat="43.463" lon="6.90931">
        <ele>146</ele>
        <time>2021-04-10T16:18:05+02:00</time>
      </trkpt>
      <trkpt lat="43.46297" lon="6.90908">
        <ele>149</ele>
        <time>2021-04-10T16:18:10+02:00</time>
      </trkpt>
      <trkpt lat="43.46329" lon="6.9093">
        <ele>153</ele>
        <time>2021-04-10T16:18:15+02:00</time>
      </trkpt>
      <trkpt lat="43.46372" lon="6.90921">
        <ele>159</ele>
        <time>2021-04-10T16:18:20+02:00</time>
      </trkpt>
      <trkpt lat="43.46384" lon="6.90919">
        <ele>160</ele>
        <time>2021-04-10T16:18:25+02:00</time>
      </trkpt>
      <trkpt lat="43.46408" lon="6.90934">
        <ele>165</ele>
        <time>2021-04-10T16:18:30+02:00</time>
      </trkpt>
      <trkpt lat="43.46424" lon="6.90918">
        <ele>166</ele>
        <time>2021-04-10T16:18:35+02:00</time>
      </trkpt>
      <trkpt lat="43.4644" lon="6.90897">
        <ele>170</ele>
        <time>2021-04-10T16:18:40+02:00</time>
      </trkpt>
      <trkpt lat="43.46454" lon="6.90861">
        <ele>178</ele>
        <time>2021-04-10T16:18:45+02:00</time>
      </trkpt>
      <trkpt lat="43.46462" lon="6.90789">
        <ele>184</ele>
        <time>2021-04-10T16:18:50+02:00</time>
      </trkpt>
      <trkpt lat="43.46475" lon="6.90726">
        <ele>190</ele>
        <time>2021-04-10T16:18:55+02:00</time>
      </trkpt>
      <trkpt lat="43.465" lon="6.90696">
        <ele>193</ele>
        <time>2021-04-10T16:19:00+02:00</time>
      </trkpt>
      <trkpt lat="43.46541" lon="6.9069">
        <ele>199</ele>
        <time>2021-04-10T16:19:05+02:00</time>
      </trkpt>
      <trkpt lat="43.46587" lon="6.90691">
        <ele>204</ele>
        <time>2021-04-10T16:19:10+02:00</time>
      </trkpt>
      <trkpt lat="43.46625" lon="6.90708">
        <ele>211</ele>
        <time>2021-04-10T16:19:15+02:00</time>
      </trkpt>
      <trkpt lat="43.46654" lon="6.90728">
        <ele>218</ele>
        <time>2021-04-10T16:19:20+02:00</time>
      </trkpt>
      <trkpt lat="43.46709" lon="6.90724">
        <ele>225</ele>
        <time>2021-04-10T16:19:25+02:00</time>
      </trkpt>
      <trkpt lat="43.46727" lon="6.90711">
        <ele>228</ele>
        <time>2021-04-10T16:19:30+02:00</time>
      </trkpt>
      <trkpt lat="43.46742" lon="6.90684">
        <ele>232</ele>
        <time>2021-04-10T16:19:35+02:00</time>
      </trkpt>
      <trkpt lat="43.46747" lon="6.90655">
        <ele>236</ele>
        <time>2021-04-10T16:19:40+02:00</time>
      </trkpt>
      <trkpt lat="43.46743" lon="6.90635">
        <ele>236</ele>
        <time>2021-04-10T16:19:45+02:00</time>
      </trkpt>
      <trkpt lat="43.46738" lon="6.90602">
        <ele>239</ele>
        <time>2021-04-10T16:19:50+02:00</time>
      </trkpt>
      <trkpt lat="43.4674" lon="6.90561">
        <ele>243</ele>
        <time>2021-04-10T16:19:55+02:00</time>
      </trkpt>
      <trkpt lat="43.46688" lon="6.90507">
        <ele>241</ele>
        <time>2021-04-10T16:20:00+02:00</time>
      </trkpt>
      <trkpt lat="43.4666" lon="6.9047">
        <ele>237</ele>
        <time>2021-04-10T16:20:05+02:00</time>
      </trkpt>
      <trkpt lat="43.46644" lon="6.90407">
        <ele>241</ele>
        <time>2021-04-10T16:20:10+02:00</time>
      </trkpt>
      <trkpt lat="43.46635" lon="6.90395">
        <ele>239</ele>
        <time>2021-04-10T16:20:15+02:00</time>
      </trkpt>
      <trkpt lat="43.4663" lon="6.90393">
        <ele>238</ele>
        <time>2021-04-10T16:20:20+02:00</time>
      </trkpt>
      <trkpt lat="43.46586" lon="6.90373">
        <ele>231</ele>
        <time>2021-04-10T16:20:25+02:00</time>
      </trkpt>
      <trkpt lat="43.46569" lon="6.90353">
        <ele>227</ele>
        <time>2021-04-10T16:20:30+02:00</time>
      </trkpt>
      <trkpt lat="43.46567" lon="6.90316">
        <ele>224</ele>
        <time>2021-04-10T16:20:35+02:00</time>
      </trkpt>
      <trkpt lat="43.4658" lon="6.90258">
        <ele>223</ele>
        <time>2021-04-10T16:20:40+02:00</time>
      </trkpt>
      <trkpt lat="43.46583" lon="6.9023">
        <ele>223</ele>
        <time>2021-04-10T16:20:45+02:00</time>
      </trkpt>
      <trkpt lat="43.46568" lon="6.90176">
        <ele>222</ele>
        <time>2021-04-10T16:20:50+02:00</time>
      </trkpt>
      <trkpt lat="43.46532" lon="6.90116">
        <ele>219</ele>
        <time>2021-04-10T16:20:55+02:00</time>
      </trkpt>
      <trkpt lat="43.46519" lon="6.90113">
        <ele>218</ele>
        <time>2021-04-10T16:21:00+02:00</time>
      </trkpt>
      <trkpt lat="43.46475" lon="6.90144">
        <ele>210</ele>
        <time>2021-04-10T16:21:05+02:00</time>
      </trkpt>
      <trkpt lat="43.46431" lon="6.90163">
        <ele>207</ele>
        <time>2021-04-10T16:21:10+02:00</time>
      </trkpt>
      <trkpt lat="43.46403" lon="6.90175">
        <ele>203</ele>
        <time>2021-04-10T16:21:15+02:00</time>
      </trkpt>
      <trkpt lat="43.46387" lon="6.90167">
        <ele>202</ele>
        <time>2021-04-10T16:21:20+02:00</time>
      </trkpt>
      <trkpt lat="43.46373" lon="6.90148">
        <ele>199</ele>
        <time>2021-04-10T16:21:25+02:00</time>
      </trkpt>
      <trkpt lat="43.46359" lon="6.90078">
        <ele>196</ele>
        <time>2021-04-10T16:21:30+02:00</time>
      </trkpt>
      <trkpt lat="43.46354" lon="6.90018">
        <ele>192</ele>
        <time>2021-04-10T16:21:35+02:00</time>
      </trkpt>
      <trkpt lat="43.4636" lon="6.8997">
        <ele>186</ele>
        <time>2021-04-10T16:21:40+02:00</time>
      </trkpt>
      <trkpt lat="43.46386" lon="6.89937">
        <ele>186</ele>
        <time>2021-04-10T16:21:45+02:00</time>
      </trkpt>
      <trkpt lat="43.4641" lon="6.89895">
        <ele>182</ele>
        <time>2021-04-10T16:21:50+02:00</time>
      </trkpt>
      <trkpt lat="43.46438" lon="6.89866">
        <ele>187</ele>
        <time>2021-04-10T16:21:55+02:00</time>
      </trkpt>
      <trkpt lat="43.46401" lon="6.89818">
        <ele>181</ele>
        <time>2021-04-10T16:22:00+02:00</time>
      </trkpt>
      <trkpt lat="43.46352" lon="6.89797">
        <ele>175</ele>
        <time>2021-04-10T16:22:05+02:00</time>
      </trkpt>
      <trkpt lat="43.46294" lon="6.89784">
        <ele>171</ele>
        <time>2021-04-10T16:22:10+02:00</time>
      </trkpt>
      <trkpt lat="43.46275" lon="6.89778">
        <ele>168</ele>
        <time>2021-04-10T16:22:15+02:00</time>
      </trkpt>
      <trkpt lat="43.46252" lon="6.89729">
        <ele>166</ele>
        <time>2021-04-10T16:22:20+02:00</time>
      </trkpt>
      <trkpt lat="43.46231" lon="6.89661">
        <ele>161</ele>
        <time>2021-04-10T16:22:25+02:00</time>
      </trkpt>
      <trkpt lat="43.46217" lon="6.89609">
        <ele>153</ele>
        <time>2021-04-10T16:22:30+02:00</time>
      </trkpt>
      <trkpt lat="43.46254" lon="6.89589">
        <ele>151</ele>
        <time>2021-04-10T16:22:35+02:00</time>
      </trkpt>
      <trkpt lat="43.46299" lon="6.89585">
        <ele>156</ele>
        <time>2021-04-10T16:22:40+02:00</time>
      </trkpt>
      <trkpt lat="43.46264" lon="6.89507">
        <ele>147</ele>
        <time>2021-04-10T16:22:45+02:00</time>
      </trkpt>
      <trkpt lat="43.46221" lon="6.89438">
        <ele>140</ele>
        <time>2021-04-10T16:22:50+02:00</time>
      </trkpt>
      <trkpt lat="43.46202" lon="6.89396">
        <ele>135</ele>
        <time>2021-04-10T16:22:55+02:00</time>
      </trkpt>
      <trkpt lat="43.46247" lon="6.89268">
        <ele>125</ele>
        <time>2021-04-10T16:23:00+02:00</time>
      </trkpt>
      <trkpt lat="43.46277" lon="6.89236">
        <ele>132</ele>
        <time>2021-04-10T16:23:05+02:00</time>
      </trkpt>
      <trkpt lat="43.4623" lon="6.89216">
        <ele>124</ele>
        <time>2021-04-10T16:23:10+02:00</time>
      </trkpt>
      <trkpt lat="43.46205" lon="6.89221">
        <ele>119</ele>
        <time>2021-04-10T16:23:15+02:00</time>
      </trkpt>
      <trkpt lat="43.46169" lon="6.89231">
        <ele>114</ele>
        <time>2021-04-10T16:23:20+02:00</time>
      </trkpt>
      <trkpt lat="43.46146" lon="6.89223">
        <ele>111</ele>
        <time>2021-04-10T16:23:25+02:00</time>
      </trkpt>
      <trkpt lat="43.46134" lon="6.89171">
        <ele>107</ele>
        <time>2021-04-10T16:23:30+02:00</time>
      </trkpt>
      <trkpt lat="43.46138" lon="6.89115">
        <ele>103</ele>
        <time>2021-04-10T16:23:35+02:00</time>
      </trkpt>
      <trkpt lat="43.4615" lon="6.89079">
        <ele>99</ele>
        <time>2021-04-10T16:23:40+02:00</time>
      </trkpt>
      <trkpt lat="43.46182" lon="6.8905">
        <ele>106</ele>
        <time>2021-04-10T16:23:45+02:00</time>
      </trkpt>
      <trkpt lat="43.46164" lon="6.89041">
        <ele>101</ele>
        <time>2021-04-10T16:23:50+02:00</time>
      </trkpt>
      <trkpt lat="43.46125" lon="6.89032">
        <ele>90</ele>
        <time>2021-04-10T16:23:55+02:00</time>
      </trkpt>
      <trkpt lat="43.46078" lon="6.88958">
        <ele>78</ele>
        <time>2021-04-10T16:24:00+02:00</time>
      </trkpt>
      <trkpt lat="43.46081" lon="6.88995">
        <ele>76</ele>
        <time>2021-04-10T16:24:05+02:00</time>
      </trkpt>
      <trkpt lat="43.46089" lon="6.89018">
        <ele>76</ele>
        <time>2021-04-10T16:24:10+02:00</time>
      </trkpt>
      <trkpt lat="43.46121" lon="6.89054">
        <ele>81</ele>
        <time>2021-04-10T16:24:15+02:00</time>
      </trkpt>
      <trkpt lat="43.46104" lon="6.89097">
        <ele>78</ele>
        <time>2021-04-10T16:24:20+02:00</time>
      </trkpt>
      <trkpt lat="43.46093" lon="6.89141">
        <ele>78</ele>
        <time>2021-04-10T16:24:25+02:00</time>
      </trkpt>
      <trkpt lat="43.46083" lon="6.89192">
        <ele>76</ele>
        <time>2021-04-10T16:24:30+02:00</time>
      </trkpt>
      <trkpt lat="43.46091" lon="6.89211">
        <ele>82</ele>
        <time>2021-04-10T16:24:35+02:00</time>
      </trkpt>
      <trkpt lat="43.46085" lon="6.89245">
        <ele>78</ele>
        <time>2021-04-10T16:24:40+02:00</time>
      </trkpt>
      <trkpt lat="43.46118" lon="6.89275">
        <ele>85</ele>
        <time>2021-04-10T16:24:45+02:00</time>
      </trkpt>
      <trkpt lat="43.46118" lon="6.89288">
        <ele>86</ele>
        <time>2021-04-10T16:24:50+02:00</time>
      </trkpt>
      <trkpt lat="43.46083" lon="6.89295">
        <ele>78</ele>
        <time>2021-04-10T16:24:55+02:00</time>
      </trkpt>
      <trkpt lat="43.46073" lon="6.89299">
        <ele>76</ele>
        <time>2021-04-10T16:25:00+02:00</time>
      </trkpt>
      <trkpt lat="43.46055" lon="6.89371">
        <ele>78</ele>
        <time>2021-04-10T16:25:05+02:00</time>
      </trkpt>
      <trkpt lat="43.46072" lon="6.89394">
        <ele>84</ele>
        <time>2021-04-10T16:25:10+02:00</time>
      </trkpt>
      <trkpt lat="43.46073" lon="6.89408">
        <ele>84</ele>
        <time>2021-04-10T16:25:15+02:00</time>
      </trkpt>
      <trkpt lat="43.46061" lon="6.89418">
        <ele>79</ele>
        <time>2021-04-10T16:25:20+02:00</time>
      </trkpt>
      <trkpt lat="43.46059" lon="6.8943">
        <ele>79</ele>
        <time>2021-04-10T16:25:25+02:00</time>
      </trkpt>
      <trkpt lat="43.46062" lon="6.8945">
        <ele>80</ele>
        <time>2021-04-10T16:25:30+02:00</time>
      </trkpt>
      <trkpt lat="43.46069" lon="6.89505">
        <ele>81</ele>
        <time>2021-04-10T16:25:35+02:00</time>
      </trkpt>
      <trkpt lat="43.46076" lon="6.89579">
        <ele>83</ele>
        <time>2021-04-10T16:25:40+02:00</time>
      </trkpt>
      <trkpt lat="43.46087" lon="6.89649">
        <ele>85</ele>
        <time>2021-04-10T16:25:45+02:00</time>
      </trkpt>
      <trkpt lat="43.46093" lon="6.89689">
        <ele>85</ele>
        <time>2021-04-10T16:25:50+02:00</time>
      </trkpt>
      <trkpt lat="43.46074" lon="6.89705">
        <ele>82</ele>
        <time>2021-04-10T16:25:55+02:00</time>
      </trkpt>
      <trkpt lat="43.46098" lon="6.89696">
        <ele>87</ele>
        <time>2021-04-10T16:26:00+02:00</time>
      </trkpt>
      <trkpt lat="43.46125" lon="6.8973">
        <ele>92</ele>
        <time>2021-04-10T16:26:05+02:00</time>
      </trkpt>
      <trkpt lat="43.46143" lon="6.89766">
        <ele>94</ele>
        <time>2021-04-10T16:26:10+02:00</time>
      </trkpt>
      <trkpt lat="43.4615" lon="6.89802">
        <ele>96</ele>
        <time>2021-04-10T16:26:15+02:00</time>
      </trkpt>
      <trkpt lat="43.4615" lon="6.89861">
        <ele>95</ele>
        <time>2021-04-10T16:26:20+02:00</time>
      </trkpt>
      <trkpt lat="43.46181" lon="6.89888">
        <ele>100</ele>
        <time>2021-04-10T16:26:25+02:00</time>
      </trkpt>
      <trkpt lat="43.46195" lon="6.8995">
        <ele>103</ele>
        <time>2021-04-10T16:26:30+02:00</time>
      </trkpt>
      <trkpt lat="43.4621" lon="6.90053">
        <ele>109</ele>
        <time>2021-04-10T16:26:35+02:00</time>
      </trkpt>
      <trkpt lat="43.4621" lon="6.90092">
        <ele>108</ele>
        <time>2021-04-10T16:26:40+02:00</time>
      </trkpt>
      <trkpt lat="43.46224" lon="6.90146">
        <ele>111</ele>
        <time>2021-04-10T16:26:45+02:00</time>
      </trkpt>
      <trkpt lat="43.46228" lon="6.90215">
        <ele>113</ele>
        <time>2021-04-10T16:26:50+02:00</time>
      </trkpt>
      <trkpt lat="43.4624" lon="6.9027">
        <ele>117</ele>
        <time>2021-04-10T16:26:55+02:00</time>
      </trkpt>
      <trkpt lat="43.46258" lon="6.90342">
        <ele>119</ele>
        <time>2021-04-10T16:27:00+02:00</time>
      </trkpt>
      <trkpt lat="43.46262" lon="6.90377">
        <ele>118</ele>
        <time>2021-04-10T16:27:05+02:00</time>
      </trkpt>
      <trkpt lat="43.46274" lon="6.90405">
        <ele>121</ele>
        <time>2021-04-10T16:27:10+02:00</time>
      </trkpt>
      <trkpt lat="43.46289" lon="6.90422">
        <ele>125</ele>
        <time>2021-04-10T16:27:15+02:00</time>
      </trkpt>
      <trkpt lat="43.46304" lon="6.90456">
        <ele>124</ele>
        <time>2021-04-10T16:27:20+02:00</time>
      </trkpt>
      <trkpt lat="43.4632" lon="6.90472">
        <ele>126</ele>
        <time>2021-04-10T16:27:25+02:00</time>
      </trkpt>
      <trkpt lat="43.46339" lon="6.90491">
        <ele>130</ele>
        <time>2021-04-10T16:27:30+02:00</time>
      </trkpt>
      <trkpt lat="43.4635" lon="6.90537">
        <ele>132</ele>
        <time>2021-04-10T16:27:35+02:00</time>
      </trkpt>
      <trkpt lat="43.46362" lon="6.90571">
        <ele>131</ele>
        <time>2021-04-10T16:27:40+02:00</time>
      </trkpt>
      <trkpt lat="43.46388" lon="6.90585">
        <ele>135</ele>
        <time>2021-04-10T16:27:45+02:00</time>
      </trkpt>
      <trkpt lat="43.46377" lon="6.90609">
        <ele>133</ele>
        <time>2021-04-10T16:27:50+02:00</time>
      </trkpt>
      <trkpt lat="43.46373" lon="6.90637">
        <ele>135</ele>
        <time>2021-04-10T16:27:55+02:00</time>
      </trkpt>
      <trkpt lat="43.46372" lon="6.90667">
        <ele>139</ele>
        <time>2021-04-10T16:28:00+02:00</time>
      </trkpt>
      <trkpt lat="43.46369" lon="6.90691">
        <ele>141</ele>
        <time>2021-04-10T16:28:05+02:00</time>
      </trkpt>
      <trkpt lat="43.46369" lon="6.90725">
        <ele>145</ele>
        <time>2021-04-10T16:28:10+02:00</time>
      </trkpt>
      <trkpt lat="43.46378" lon="6.90768">
        <ele>149</ele>
        <time>2021-04-10T16:28:15+02:00</time>
      </trkpt>
      <trkpt lat="43.4638" lon="6.908">
        <ele>151</ele>
        <time>2021-04-10T16:28:20+02:00</time>
      </trkpt>
      <trkpt lat="43.46382" lon="6.90832">
        <ele>153</ele>
        <time>2021-04-10T16:28:25+02:00</time>
      </trkpt>
      <trkpt lat="43.46383" lon="6.90852">
        <ele>155</ele>
        <time>2021-04-10T16:28:30+02:00</time>
      </trkpt>
      <trkpt lat="43.46389" lon="6.90887">
        <ele>158</ele>
        <time>2021-04-10T16:28:35+02:00</time>
      </trkpt>
      <trkpt lat="43.46389" lon="6.90912">
        <ele>160</ele>
        <time>2021-04-10T16:28:40+02:00</time>
      </trkpt>
      <trkpt lat="43.46376" lon="6.90927">
        <ele>159</ele>
        <time>2021-04-10T16:28:45+02:00</time>
      </trkpt>
      <trkpt lat="43.46354" lon="6.90923">
        <ele>157</ele>
        <time>2021-04-10T16:28:50+02:00</time>
      </trkpt>
      <trkpt lat="43.46338" lon="6.90925">
        <ele>155</ele>
        <time>2021-04-10T16:28:55+02:00</time>
      </trkpt>
      <trkpt lat="43.46326" lon="6.90931">
        <ele>152</ele>
        <time>2021-04-10T16:29:00+02:00</time>
      </trkpt>
      <trkpt lat="43.463" lon="6.90909">
        <ele>150</ele>
        <time>2021-04-10T16:29:05+02:00</time>
      </trkpt>
      <trkpt lat="43.463" lon="6.90932">
        <ele>146</ele>
        <time>2021-04-10T16:29:10+02:00</time>
      </trkpt>
      <trkpt lat="43.46311" lon="6.90939">
        <ele>148</ele>
        <time>2021-04-10T16:29:15+02:00</time>
      </trkpt>
      <trkpt lat="43.4634" lon="6.90949">
        <ele>150</ele>
        <time>2021-04-10T16:29:20+02:00</time>
      </trkpt>
      <trkpt lat="43.46348" lon="6.90956">
        <ele>149</ele>
        <time>2021-04-10T16:29:25+02:00</time>
      </trkpt>
      <trkpt lat="43.46346" lon="6.90982">
        <ele>143</ele>
        <time>2021-04-10T16:29:30+02:00</time>
      </trkpt>
      <trkpt lat="43.46354" lon="6.91011">
        <ele>140</ele>
        <time>2021-04-10T16:29:35+02:00</time>
      </trkpt>
      <trkpt lat="43.46357" lon="6.91084">
        <ele>134</ele>
        <time>2021-04-10T16:29:40+02:00</time>
      </trkpt>
      <trkpt lat="43.46344" lon="6.91057">
        <ele>128</ele>
        <time>2021-04-10T16:29:45+02:00</time>
      </trkpt>
      <trkpt lat="43.46333" lon="6.91011">
        <ele>131</ele>
        <time>2021-04-10T16:29:50+02:00</time>
      </trkpt>
      <trkpt lat="43.46312" lon="6.91017">
        <ele>124</ele>
        <time>2021-04-10T16:29:55+02:00</time>
      </trkpt>
      <trkpt lat="43.46285" lon="6.9102">
        <ele>120</ele>
        <time>2021-04-10T16:30:00+02:00</time>
      </trkpt>
      <trkpt lat="43.46265" lon="6.91019">
        <ele>116</ele>
        <time>2021-04-10T16:30:05+02:00</time>
      </trkpt>
      <trkpt lat="43.46248" lon="6.91009">
        <ele>114</ele>
        <time>2021-04-10T16:30:10+02:00</time>
      </trkpt>
      <trkpt lat="43.46222" lon="6.90975">
        <ele>107</ele>
        <time>2021-04-10T16:30:15+02:00</time>
      </trkpt>
      <trkpt lat="43.4623" lon="6.91019">
        <ele>102</ele>
        <time>2021-04-10T16:30:20+02:00</time>
      </trkpt>
      <trkpt lat="43.46246" lon="6.91051">
        <ele>100</ele>
        <time>2021-04-10T16:30:25+02:00</time>
      </trkpt>
      <trkpt lat="43.46259" lon="6.91067">
        <ele>96</ele>
        <time>2021-04-10T16:30:30+02:00</time>
      </trkpt>
      <trkpt lat="43.46287" lon="6.9107">
        <ele>101</ele>
        <time>2021-04-10T16:30:35+02:00</time>
      </trkpt>
      <trkpt lat="43.46276" lon="6.91105">
        <ele>92</ele>
        <time>2021-04-10T16:30:40+02:00</time>
      </trkpt>
      <trkpt lat="43.46255" lon="6.91149">
        <ele>87</ele>
        <time>2021-04-10T16:30:45+02:00</time>
      </trkpt>
      <trkpt lat="43.46244" lon="6.91185">
        <ele>82</ele>
        <time>2021-04-10T16:30:50+02:00</time>
      </trkpt>
      <trkpt lat="43.46245" lon="6.91217">
        <ele>82</ele>
        <time>2021-04-10T16:30:55+02:00</time>
      </trkpt>
      <trkpt lat="43.46231" lon="6.91243">
        <ele>75</ele>
        <time>2021-04-10T16:31:00+02:00</time>
      </trkpt>
      <trkpt lat="43.46232" lon="6.91261">
        <ele>74</ele>
        <time>2021-04-10T16:31:05+02:00</time>
      </trkpt>
      <trkpt lat="43.46251" lon="6.91283">
        <ele>76</ele>
        <time>2021-04-10T16:31:10+02:00</time>
      </trkpt>
      <trkpt lat="43.46228" lon="6.91301">
        <ele>68</ele>
        <time>2021-04-10T16:31:15+02:00</time>
      </trkpt>
      <trkpt lat="43.46226" lon="6.91317">
        <ele>68</ele>
        <time>2021-04-10T16:31:20+02:00</time>
      </trkpt>
      <trkpt lat="43.46202" lon="6.91386">
        <ele>60</ele>
        <time>2021-04-10T16:31:25+02:00</time>
      </trkpt>
      <trkpt lat="43.46207" lon="6.91412">
        <ele>61</ele>
        <time>2021-04-10T16:31:30+02:00</time>
      </trkpt>
      <trkpt lat="43.46196" lon="6.91483">
        <ele>51</ele>
        <time>2021-04-10T16:31:35+02:00</time>
      </trkpt>
      <trkpt lat="43.46192" lon="6.91533">
        <ele>44</ele>
        <time>2021-04-10T16:31:40+02:00</time>
      </trkpt>
      <trkpt lat="43.46192" lon="6.91592">
        <ele>37</ele>
        <time>2021-04-10T16:31:45+02:00</time>
      </trkpt>
      <trkpt lat="43.46192" lon="6.91647">
        <ele>31</ele>
        <time>2021-04-10T16:31:50+02:00</time>
      </trkpt>
      <trkpt lat="43.46185" lon="6.91701">
        <ele>26</ele>
        <time>2021-04-10T16:31:55+02:00</time>
      </trkpt>
      <trkpt lat="43.46187" lon="6.91738">
        <ele>22</ele>
        <time>2021-04-10T16:32:00+02:00</time>
      </trkpt>
      <trkpt lat="43.46206" lon="6.91784">
        <ele>18</ele>
        <time>2021-04-10T16:32:05+02:00</time>
      </trkpt>
      <trkpt lat="43.46193" lon="6.91814">
        <ele>12</ele>
        <time>2021-04-10T16:32:10+02:00</time>
      </trkpt>
      <trkpt lat="43.46199" lon="6.91837">
        <ele>12</ele>
        <time>2021-04-10T16:32:15+02:00</time>
      </trkpt>
      <trkpt lat="43.46199" lon="6.91865">
        <ele>12</ele>
        <time>2021-04-10T16:32:20+02:00</time>
      </trkpt>
      <trkpt lat="43.46199" lon="6.91893">
        <ele>12</ele>
        <time>2021-04-10T16:32:25+02:00</time>
      </trkpt>
      <trkpt lat="43.46209" lon="6.9192">
        <ele>12</ele>
        <time>2021-04-10T16:32:30+02:00</time>
      </trkpt>
      <trkpt lat="43.46217" lon="6.91941">
        <ele>11</ele>
        <time>2021-04-10T16:32:35+02:00</time>
      </trkpt>
      <trkpt lat="43.46204" lon="6.9197">
        <ele>13</ele>
        <time>2021-04-10T16:32:40+02:00</time>
      </trkpt>
      <trkpt lat="43.46204" lon="6.91982">
        <ele>13</ele>
        <time>2021-04-10T16:32:45+02:00</time>
      </trkpt>
      <trkpt lat="43.4621" lon="6.92012">
        <ele>12</ele>
        <time>2021-04-10T16:32:50+02:00</time>
      </trkpt>
      <trkpt lat="43.46217" lon="6.92044">
        <ele>11</ele>
        <time>2021-04-10T16:32:55+02:00</time>
      </trkpt>
      <trkpt lat="43.46211" lon="6.92072">
        <ele>12</ele>
        <time>2021-04-10T16:33:00+02:00</time>
      </trkpt>
      <trkpt lat="43.46207" lon="6.92139">
        <ele>24</ele>
        <time>2021-04-10T16:33:05+02:00</time>
      </trkpt>
      <trkpt lat="43.46206" lon="6.92161">
        <ele>10</ele>
        <time>2021-04-10T16:33:10+02:00</time>
      </trkpt>
      <trkpt lat="43.46235" lon="6.9217">
        <ele>11</ele>
        <time>2021-04-10T16:33:15+02:00</time>
      </trkpt>
      <trkpt lat="43.46249" lon="6.92271">
        <ele>4</ele>
        <time>2021-04-10T16:33:20+02:00</time>
      </trkpt>
      <trkpt lat="43.46272" lon="6.92294">
        <ele>8</ele>
        <time>2021-04-10T16:33:25+02:00</time>
      </trkpt>
      <trkpt lat="43.46308" lon="6.92329">
        <ele>10</ele>
        <time>2021-04-10T16:33:30+02:00</time>
      </trkpt>
      <trkpt lat="43.46332" lon="6.92366">
        <ele>10</ele>
        <time>2021-04-10T16:33:35+02:00</time>
      </trkpt>
      <trkpt lat="43.46341" lon="6.92372">
        <ele>10</ele>
        <time>2021-04-10T16:33:40+02:00</time>
      </trkpt>
      <trkpt lat="43.46359" lon="6.9235">
        <ele>13</ele>
        <time>2021-04-10T16:33:45+02:00</time>
      </trkpt>
      <trkpt lat="43.46383" lon="6.92315">
        <ele>14</ele>
        <time>2021-04-10T16:33:50+02:00</time>
      </trkpt>
      <trkpt lat="43.46389" lon="6.92287">
        <ele>17</ele>
        <time>2021-04-10T16:33:55+02:00</time>
      </trkpt>
      <trkpt lat="43.46398" lon="6.92275">
        <ele>17</ele>
        <time>2021-04-10T16:34:00+02:00</time>
      </trkpt>
      <trkpt lat="43.4641" lon="6.92285">
        <ele>14</ele>
        <time>2021-04-10T16:34:05+02:00</time>
      </trkpt>
      <trkpt lat="43.46431" lon="6.92272">
        <ele>17</ele>
        <time>2021-04-10T16:34:10+02:00</time>
      </trkpt>
    </trkseg>
  </trk>
</gpx>